createdAt,value
2018-03-26T00:02:13.329Z,1.20
2018-03-26T00:04:42.988Z,1.57
2018-03-26T00:07:12.120Z,1.50
2018-03-26T00:09:41.472Z,1.40
2018-03-26T00:12:10.133Z,1.03
2018-03-26T00:14:39.299Z,1.23
2018-03-26T00:17:07.618Z,1.20
2018-03-26T00:19:36.827Z,1.30
2018-03-26T00:22:05.322Z,1.30
2018-03-26T00:24:33.740Z,1.60
2018-03-26T00:27:02.037Z,1.40
2018-03-26T00:29:30.321Z,1.13
2018-03-26T00:31:57.975Z,1.10
2018-03-26T00:34:25.575Z,1.30
2018-03-26T00:36:53.749Z,1.43
2018-03-26T00:39:23.177Z,1.07
2018-03-26T00:41:50.863Z,1.10
2018-03-26T00:44:18.473Z,1.43
2018-03-26T00:46:46.043Z,1.10
2018-03-26T00:49:14.452Z,1.10
2018-03-26T00:51:42.024Z,1.50
2018-03-26T00:54:09.646Z,1.40
2018-03-26T00:56:38.078Z,1.30
2018-03-26T00:59:05.659Z,0.90
2018-03-26T01:01:33.220Z,1.27
2018-03-26T01:04:00.844Z,1.23
2018-03-26T01:06:28.463Z,1.40
2018-03-26T01:08:56.055Z,1.20
2018-03-26T01:11:23.627Z,0.97
2018-03-26T01:13:51.228Z,1.43
2018-03-26T01:16:19.576Z,1.20
2018-03-26T01:18:47.166Z,1.20
2018-03-26T01:21:15.532Z,1.50
2018-03-26T01:23:43.151Z,0.87
2018-03-26T01:26:10.815Z,0.93
2018-03-26T01:28:38.874Z,1.17
2018-03-26T01:31:06.615Z,1.30
2018-03-26T01:33:34.228Z,0.90
2018-03-26T01:36:01.852Z,1.37
2018-03-26T01:38:29.487Z,1.13
2018-03-26T01:40:57.080Z,0.97
2018-03-26T01:43:24.735Z,1.40
2018-03-26T01:45:52.392Z,1.13
2018-03-26T01:48:20.031Z,1.10
2018-03-26T01:50:47.739Z,0.90
2018-03-26T01:53:15.368Z,1.13
2018-03-26T01:55:43.108Z,1.10
2018-03-26T01:58:12.212Z,1.10
2018-03-26T02:00:39.835Z,1.40
2018-03-26T02:03:08.178Z,1.17
2018-03-26T02:05:35.734Z,1.33
2018-03-26T02:08:03.528Z,1.30
2018-03-26T02:10:31.878Z,1.30
2018-03-26T02:12:59.607Z,1.10
2018-03-26T02:15:27.212Z,0.90
2018-03-26T02:17:55.643Z,1.10
2018-03-26T02:20:23.251Z,0.90
2018-03-26T02:22:50.925Z,0.90
2018-03-26T02:25:18.522Z,1.00
2018-03-26T02:27:46.163Z,1.37
2018-03-26T02:30:14.545Z,1.23
2018-03-26T02:32:42.216Z,1.10
2018-03-26T02:35:09.805Z,1.03
2018-03-26T02:37:38.746Z,1.10
2018-03-26T02:40:07.205Z,1.10
2018-03-26T02:42:34.784Z,0.97
2018-03-26T02:45:03.149Z,1.30
2018-03-26T02:47:31.530Z,1.23
2018-03-26T02:49:59.924Z,1.10
2018-03-26T02:52:27.590Z,1.40
2018-03-26T02:54:55.169Z,0.83
2018-03-26T02:57:22.731Z,1.10
2018-03-26T02:59:50.349Z,1.20
2018-03-26T03:02:17.930Z,1.47
2018-03-26T03:04:45.491Z,1.13
2018-03-26T03:07:13.071Z,0.83
2018-03-26T03:09:40.650Z,0.93
2018-03-26T03:12:08.223Z,0.90
2018-03-26T03:14:37.386Z,0.90
2018-03-26T03:17:04.982Z,0.97
2018-03-26T03:19:32.629Z,1.03
2018-03-26T03:22:01.131Z,0.97
2018-03-26T03:24:29.526Z,1.00
2018-03-26T03:26:57.097Z,1.03
2018-03-26T03:29:24.676Z,0.90
2018-03-26T03:31:52.287Z,1.10
2018-03-26T03:34:20.616Z,1.40
2018-03-26T03:36:48.228Z,1.37
2018-03-26T03:39:15.873Z,1.00
2018-03-26T03:41:44.247Z,1.00
2018-03-26T03:44:12.591Z,0.83
2018-03-26T03:46:40.231Z,0.80
2018-03-26T03:49:07.827Z,1.07
2018-03-26T03:51:35.479Z,0.90
2018-03-26T03:54:03.104Z,1.20
2018-03-26T03:56:31.702Z,0.90
2018-03-26T03:58:59.276Z,0.97
2018-03-26T04:01:26.930Z,1.13
2018-03-26T04:03:54.530Z,0.90
2018-03-26T04:06:22.956Z,1.23
2018-03-26T04:08:50.536Z,1.10
2018-03-26T04:11:18.110Z,0.90
2018-03-26T04:13:45.691Z,0.90
2018-03-26T04:16:13.312Z,1.10
2018-03-26T04:18:40.901Z,1.13
2018-03-26T04:21:09.251Z,1.13
2018-03-26T04:23:36.869Z,1.43
2018-03-26T04:26:04.445Z,1.20
2018-03-26T04:28:32.056Z,0.90
2018-03-26T04:31:00.515Z,1.00
2018-03-26T04:33:28.130Z,0.90
2018-03-26T04:35:55.694Z,0.90
2018-03-26T04:38:23.281Z,1.23
2018-03-26T04:40:50.866Z,1.00
2018-03-26T04:43:19.239Z,1.10
2018-03-26T04:45:47.600Z,0.80
2018-03-26T04:48:15.970Z,1.13
2018-03-26T04:50:43.567Z,0.90
2018-03-26T04:53:11.307Z,0.83
2018-03-26T04:55:39.956Z,0.77
2018-03-26T04:58:07.607Z,0.83
2018-03-26T05:00:35.192Z,1.00
2018-03-26T05:03:02.782Z,1.10
2018-03-26T05:05:30.401Z,1.03
2018-03-26T05:07:57.982Z,0.90
2018-03-26T05:10:26.343Z,0.90
2018-03-26T05:12:54.025Z,1.00
2018-03-26T05:15:22.368Z,0.63
2018-03-26T05:17:49.957Z,1.00
2018-03-26T05:20:18.421Z,1.10
2018-03-26T05:22:46.072Z,1.00
2018-03-26T05:25:15.289Z,1.17
2018-03-26T05:27:43.658Z,0.90
2018-03-26T05:30:11.264Z,0.90
2018-03-26T05:32:40.311Z,0.90
2018-03-26T05:35:07.978Z,1.07
2018-03-26T05:37:36.359Z,0.90
2018-03-26T05:40:04.735Z,1.10
2018-03-26T05:42:33.203Z,1.10
2018-03-26T05:45:00.797Z,1.00
2018-03-26T05:47:28.375Z,0.97
2018-03-26T05:49:56.014Z,0.87
2018-03-26T05:52:23.643Z,1.27
2018-03-26T05:54:51.993Z,1.17
2018-03-26T05:57:19.557Z,1.13
2018-03-26T05:59:47.196Z,0.93
2018-03-26T06:02:14.792Z,0.87
2018-03-26T06:04:42.361Z,0.73
2018-03-26T06:07:09.931Z,1.10
2018-03-26T06:09:37.718Z,1.00
2018-03-26T06:12:05.287Z,1.00
2018-03-26T06:14:32.878Z,1.03
2018-03-26T06:17:14.464Z,0.90
2018-03-26T06:19:42.091Z,0.73
2018-03-26T06:22:09.712Z,0.93
2018-03-26T06:24:37.321Z,0.80
2018-03-26T06:27:04.903Z,1.00
2018-03-26T06:29:32.531Z,1.07
2018-03-26T06:32:00.236Z,0.83
2018-03-26T06:34:27.858Z,0.90
2018-03-26T06:39:55.136Z,0.80
2018-03-26T06:42:22.936Z,1.20
2018-03-26T06:44:51.265Z,1.03
2018-03-26T06:47:18.908Z,1.00
2018-03-26T06:49:46.557Z,0.80
2018-03-26T06:52:14.868Z,0.77
2018-03-26T06:54:42.476Z,0.67
2018-03-26T06:57:10.150Z,0.73
2018-03-26T06:59:37.870Z,0.70
2018-03-26T07:02:06.348Z,0.90
2018-03-26T07:04:34.150Z,0.90
2018-03-26T07:07:01.798Z,0.83
2018-03-26T07:09:30.204Z,0.60
2018-03-26T07:11:57.952Z,0.70
2018-03-26T07:14:25.522Z,0.80
2018-03-26T07:16:53.170Z,0.73
2018-03-26T07:19:20.928Z,0.80
2018-03-26T07:21:48.556Z,0.57
2018-03-26T07:24:17.053Z,0.80
2018-03-26T07:26:44.694Z,0.97
2018-03-26T07:29:13.103Z,0.83
2018-03-26T07:31:40.731Z,0.90
2018-03-26T07:34:08.326Z,0.90
2018-03-26T07:36:35.947Z,0.70
2018-03-26T07:39:03.555Z,0.80
2018-03-26T07:41:31.151Z,1.10
2018-03-26T07:43:58.778Z,0.70
2018-03-26T07:46:26.409Z,1.00
2018-03-26T07:48:53.994Z,0.70
2018-03-26T07:51:21.596Z,0.70
2018-03-26T07:53:49.167Z,0.80
2018-03-26T07:56:16.822Z,0.80
2018-03-26T07:58:44.387Z,0.97
2018-03-26T08:01:11.960Z,0.57
2018-03-26T08:03:40.764Z,1.00
2018-03-26T08:06:08.391Z,0.70
2018-03-26T08:08:35.972Z,0.93
2018-03-26T08:11:03.576Z,0.90
2018-03-26T08:13:31.159Z,1.00
2018-03-26T08:20:02.911Z,0.60
2018-03-26T08:22:30.546Z,0.67
2018-03-26T08:24:58.232Z,1.00
2018-03-26T08:27:25.811Z,1.10
2018-03-26T08:29:53.402Z,0.80
2018-03-26T08:32:20.974Z,0.80
2018-03-26T08:34:48.530Z,0.90
2018-03-26T08:37:16.482Z,0.90
2018-03-26T08:39:44.616Z,0.87
2018-03-26T08:42:12.192Z,0.57
2018-03-26T08:44:40.627Z,0.70
2018-03-26T08:47:08.240Z,0.67
2018-03-26T08:49:36.577Z,0.43
2018-03-26T08:52:04.183Z,1.00
2018-03-26T08:54:33.317Z,0.77
2018-03-26T08:57:00.910Z,0.73
2018-03-26T08:59:30.067Z,0.67
2018-03-26T09:01:57.711Z,0.70
2018-03-26T09:04:25.283Z,0.70
2018-03-26T09:06:52.884Z,1.23
2018-03-26T09:09:20.515Z,1.17
2018-03-26T09:11:48.122Z,0.90
2018-03-26T09:14:16.517Z,0.80
2018-03-26T09:16:44.119Z,0.67
2018-03-26T09:19:11.736Z,0.70
2018-03-26T09:21:39.404Z,0.80
2018-03-26T09:24:07.184Z,0.63
2018-03-26T09:26:34.850Z,0.60
2018-03-26T09:29:02.478Z,0.90
2018-03-26T09:31:30.070Z,0.80
2018-03-26T09:33:57.671Z,0.80
2018-03-26T09:36:25.999Z,1.00
2018-03-26T09:38:53.809Z,0.70
2018-03-26T09:41:22.147Z,0.87
2018-03-26T09:43:49.887Z,0.80
2018-03-26T09:46:17.448Z,0.60
2018-03-26T09:48:45.100Z,0.93
2018-03-26T09:51:12.692Z,1.00
2018-03-26T09:53:40.398Z,0.60
2018-03-26T09:56:07.973Z,0.80
2018-03-26T09:58:35.567Z,0.70
2018-03-26T10:01:03.690Z,0.80
2018-03-26T10:03:31.402Z,0.80
2018-03-26T10:05:58.995Z,0.70
2018-03-26T10:08:27.355Z,0.77
2018-03-26T10:10:55.055Z,0.60
2018-03-26T10:13:22.932Z,0.70
2018-03-26T10:15:52.814Z,0.70
2018-03-26T10:18:20.813Z,1.00
2018-03-26T10:20:48.474Z,1.00
2018-03-26T10:23:16.031Z,0.80
2018-03-26T10:25:43.654Z,0.80
2018-03-26T10:28:12.841Z,0.67
2018-03-26T10:30:40.526Z,0.83
2018-03-26T10:33:08.152Z,0.80
2018-03-26T10:35:35.747Z,0.80
2018-03-26T10:38:03.318Z,0.70
2018-03-26T10:40:30.875Z,0.73
2018-03-26T10:42:58.451Z,0.80
2018-03-26T10:45:26.006Z,0.67
2018-03-26T10:47:53.592Z,0.70
2018-03-26T10:50:21.393Z,0.90
2018-03-26T10:52:49.005Z,0.90
2018-03-26T10:55:16.565Z,0.67
2018-03-26T10:57:44.145Z,0.70
2018-03-26T11:00:12.594Z,0.70
2018-03-26T11:02:40.176Z,0.83
2018-03-26T11:05:08.507Z,0.80
2018-03-26T11:07:36.096Z,0.87
2018-03-26T11:10:03.655Z,0.70
2018-03-26T11:12:31.282Z,0.97
2018-03-26T11:14:58.850Z,0.93
2018-03-26T11:17:26.472Z,0.90
2018-03-26T11:19:54.071Z,0.70
2018-03-26T11:22:21.692Z,0.80
2018-03-26T11:24:49.381Z,1.00
2018-03-26T11:27:16.992Z,0.90
2018-03-26T11:29:44.563Z,0.63
2018-03-26T11:32:13.760Z,0.80
2018-03-26T11:34:42.151Z,0.80
2018-03-26T11:37:09.759Z,0.70
2018-03-26T11:39:37.435Z,1.10
2018-03-26T11:42:05.124Z,1.23
2018-03-26T11:44:32.827Z,0.60
2018-03-26T11:47:00.811Z,0.77
2018-03-26T11:49:29.295Z,0.90
2018-03-26T11:51:57.039Z,0.87
2018-03-26T11:54:25.545Z,0.70
2018-03-26T11:56:53.984Z,0.90
2018-03-26T11:59:21.550Z,0.70
2018-03-26T12:01:49.174Z,0.70
2018-03-26T12:04:16.743Z,0.73
2018-03-26T12:06:44.419Z,0.87
2018-03-26T12:09:12.022Z,0.93
2018-03-26T12:11:40.424Z,0.70
2018-03-26T12:14:08.022Z,0.90
2018-03-26T12:16:36.178Z,0.93
2018-03-26T12:19:04.658Z,0.57
2018-03-26T12:21:32.350Z,0.87
2018-03-26T12:24:11.886Z,0.70
2018-03-26T12:26:40.291Z,0.70
2018-03-26T12:29:20.599Z,0.67
2018-03-26T12:31:48.242Z,0.90
2018-03-26T12:37:20.773Z,0.70
2018-03-26T12:39:48.351Z,0.70
2018-03-26T12:42:16.032Z,0.80
2018-03-26T12:44:55.705Z,0.80
2018-03-26T12:47:23.312Z,1.13
2018-03-26T12:49:50.915Z,0.70
2018-03-26T12:52:30.343Z,0.80
2018-03-26T12:54:57.950Z,0.80
2018-03-26T12:57:37.529Z,0.80
2018-03-26T13:00:05.985Z,0.67
2018-03-26T13:02:34.351Z,0.90
2018-03-26T13:05:01.971Z,0.73
2018-03-26T13:07:29.553Z,0.80
2018-03-26T13:09:57.142Z,0.80
2018-03-26T13:12:25.510Z,0.70
2018-03-26T13:14:53.100Z,0.90
2018-03-26T13:17:20.690Z,0.70
2018-03-26T13:19:48.245Z,0.90
2018-03-26T13:22:15.946Z,0.80
2018-03-26T13:24:43.605Z,1.00
2018-03-26T13:27:11.287Z,0.73
2018-03-26T13:29:39.620Z,2.07
2018-03-26T13:32:07.231Z,1.00
2018-03-26T13:34:35.648Z,2.93
2018-03-26T13:37:03.599Z,3.13
2018-03-26T13:39:31.773Z,2.20
2018-03-26T13:42:00.191Z,1.30
2018-03-26T13:44:28.545Z,3.00
2018-03-26T13:46:57.735Z,1.90
2018-03-26T13:49:25.362Z,1.83
2018-03-26T13:51:53.058Z,0.90
2018-03-26T13:54:22.429Z,1.20
2018-03-26T13:56:50.128Z,4.33
2018-03-26T13:59:18.487Z,1.27
2018-03-26T14:01:46.660Z,1.80
2018-03-26T14:04:15.959Z,2.40
2018-03-26T14:06:43.579Z,2.80
2018-03-26T14:09:23.040Z,2.10
2018-03-26T14:12:02.559Z,1.63
2018-03-26T14:14:41.932Z,1.00
2018-03-26T14:17:21.320Z,1.20
2018-03-26T14:19:49.715Z,0.73
2018-03-26T14:22:17.271Z,2.10
2018-03-26T14:24:44.917Z,2.57
2018-03-26T14:27:13.238Z,1.37
2018-03-26T14:29:41.002Z,1.10
2018-03-26T14:32:08.572Z,2.87
2018-03-26T14:34:36.177Z,3.43
2018-03-26T14:37:03.853Z,1.27
2018-03-26T14:39:31.413Z,1.33
2018-03-26T14:41:58.989Z,1.70
2018-03-26T14:44:26.557Z,1.40
2018-03-26T14:46:54.212Z,2.00
2018-03-26T14:49:21.866Z,1.67
2018-03-26T14:51:49.454Z,1.63
2018-03-26T14:54:17.190Z,1.40
2018-03-26T14:56:44.767Z,1.97
2018-03-26T14:59:12.323Z,3.70
2018-03-26T15:01:39.943Z,1.83
2018-03-26T15:04:07.582Z,2.30
2018-03-26T15:06:35.311Z,1.83
2018-03-26T15:09:02.933Z,1.73
2018-03-26T15:11:30.843Z,1.30
2018-03-26T15:13:59.186Z,1.73
2018-03-26T15:16:26.841Z,1.53
2018-03-26T15:18:54.513Z,1.43
2018-03-26T15:21:22.114Z,1.63
2018-03-26T15:23:50.615Z,2.17
2018-03-26T15:26:18.233Z,1.97
2018-03-26T15:28:46.089Z,1.07
2018-03-26T15:31:13.687Z,1.20
2018-03-26T15:33:42.302Z,1.67
2018-03-26T15:36:10.709Z,1.50
2018-03-26T15:38:38.737Z,1.03
2018-03-26T15:41:06.419Z,1.60
2018-03-26T15:43:34.189Z,1.20
2018-03-26T15:46:01.831Z,2.00
2018-03-26T15:48:30.193Z,2.00
2018-03-26T15:51:01.658Z,2.90
2018-03-26T15:53:30.256Z,1.90
2018-03-26T15:55:57.811Z,1.93
2018-03-26T15:58:25.503Z,2.27
2018-03-26T16:00:53.904Z,2.17
2018-03-26T16:03:37.984Z,2.17
2018-03-26T16:06:05.645Z,1.77
2018-03-26T16:08:33.286Z,2.57
2018-03-26T16:11:00.880Z,3.13
2018-03-26T16:13:28.470Z,1.40
2018-03-26T16:15:56.977Z,1.07
2018-03-26T16:18:24.630Z,1.63
2018-03-26T16:20:52.276Z,1.47
2018-03-26T16:23:20.721Z,1.33
2018-03-26T16:25:48.296Z,1.50
2018-03-26T16:28:15.984Z,2.03
2018-03-26T16:30:43.581Z,1.30
2018-03-26T16:33:11.159Z,1.53
2018-03-26T16:35:39.062Z,1.93
2018-03-26T16:38:06.676Z,1.87
2018-03-26T16:40:34.278Z,1.97
2018-03-26T16:43:04.790Z,1.40
2018-03-26T16:45:32.455Z,1.90
2018-03-26T16:48:00.858Z,1.53
2018-03-26T16:50:28.519Z,1.87
2018-03-26T16:52:56.236Z,1.23
2018-03-26T16:55:23.799Z,1.43
2018-03-26T16:57:51.414Z,1.43
2018-03-26T17:00:18.986Z,2.37
2018-03-26T17:02:46.559Z,1.67
2018-03-26T17:05:14.131Z,1.53
2018-03-26T17:07:41.689Z,1.70
2018-03-26T17:10:09.328Z,1.57
2018-03-26T17:12:37.016Z,1.63
2018-03-26T17:15:04.583Z,1.57
2018-03-26T17:17:32.992Z,1.40
2018-03-26T17:20:00.598Z,1.30
2018-03-26T17:22:28.164Z,2.07
2018-03-26T17:24:55.715Z,2.90
2018-03-26T17:27:23.367Z,1.50
2018-03-26T17:29:50.924Z,1.27
2018-03-26T17:32:18.616Z,2.07
2018-03-26T17:34:47.032Z,2.03
2018-03-26T17:37:14.614Z,1.67
2018-03-26T17:39:42.258Z,2.60
2018-03-26T17:42:10.725Z,3.33
2018-03-26T17:44:40.047Z,1.37
2018-03-26T17:47:07.896Z,1.10
2018-03-26T17:49:35.763Z,2.50
2018-03-26T17:52:03.543Z,1.57
2018-03-26T17:54:32.207Z,1.30
2018-03-26T17:57:00.959Z,1.73
2018-03-26T17:59:28.677Z,1.60
2018-03-26T18:01:57.408Z,2.30
2018-03-26T18:04:25.734Z,1.87
2018-03-26T18:06:53.310Z,1.27
2018-03-26T18:09:21.447Z,1.33
2018-03-26T18:11:49.923Z,1.40
2018-03-26T18:14:17.489Z,1.73
2018-03-26T18:16:46.139Z,1.23
2018-03-26T18:19:13.926Z,1.40
2018-03-26T18:21:41.556Z,1.10
2018-03-26T18:24:09.146Z,1.13
2018-03-26T18:26:37.503Z,1.03
2018-03-26T18:29:06.110Z,1.57
2018-03-26T18:31:35.406Z,1.00
2018-03-26T18:34:03.539Z,1.17
2018-03-26T18:36:31.826Z,1.50
2018-03-26T18:38:59.418Z,1.47
2018-03-26T18:41:27.885Z,1.30
2018-03-26T18:43:57.105Z,1.13
2018-03-26T18:46:26.188Z,1.97
2018-03-26T18:48:54.858Z,0.90
2018-03-26T18:51:23.784Z,1.17
2018-03-26T18:53:53.046Z,1.30
2018-03-26T18:56:21.841Z,1.40
2018-03-26T18:58:50.737Z,1.30
2018-03-26T19:01:20.034Z,1.80
2018-03-26T19:03:50.030Z,1.37
2018-03-26T19:06:18.442Z,1.50
2018-03-26T19:08:46.995Z,1.03
2018-03-26T19:11:15.504Z,1.43
2018-03-26T19:13:43.160Z,1.30
2018-03-26T19:16:10.720Z,0.90
2018-03-26T19:18:39.382Z,0.70
2018-03-26T19:21:08.319Z,1.10
2018-03-26T19:23:37.692Z,1.20
2018-03-26T19:26:06.866Z,1.00
2018-03-26T19:28:35.340Z,1.20
2018-03-26T19:31:04.673Z,0.90
2018-03-26T19:33:33.636Z,1.23
2018-03-26T19:36:03.468Z,1.10
2018-03-26T19:38:33.684Z,1.10
2018-03-26T19:41:02.039Z,1.00
2018-03-26T19:43:30.833Z,1.17
2018-03-26T19:45:59.722Z,1.47
2018-03-26T19:48:29.937Z,1.00
2018-03-26T19:50:58.786Z,0.80
2018-03-26T19:53:27.411Z,0.70
2018-03-26T19:55:56.708Z,0.73
2018-03-26T19:58:25.946Z,0.93
2018-03-26T20:00:54.044Z,1.00
2018-03-26T20:03:23.887Z,2.00
2018-03-26T20:05:52.366Z,0.87
2018-03-26T20:08:21.072Z,0.80
2018-03-26T20:10:49.479Z,0.80
2018-03-26T20:13:17.842Z,1.00
2018-03-26T20:15:45.532Z,1.10
2018-03-26T20:18:13.099Z,0.93
2018-03-26T20:20:40.813Z,0.77
2018-03-26T20:23:08.390Z,1.43
2018-03-26T20:25:35.981Z,1.40
2018-03-26T20:28:03.555Z,0.90
2018-03-26T20:30:31.184Z,1.13
2018-03-26T20:32:59.506Z,1.63
2018-03-26T20:35:27.084Z,0.97
2018-03-26T20:37:54.719Z,2.30
2018-03-26T20:40:22.322Z,1.07
2018-03-26T20:42:50.702Z,1.20
2018-03-26T20:45:18.366Z,1.40
2018-03-26T20:47:47.645Z,1.00
2018-03-26T20:50:15.254Z,0.77
2018-03-26T20:52:42.857Z,1.20
2018-03-26T20:55:10.475Z,0.90
2018-03-26T20:57:39.269Z,0.80
2018-03-26T21:00:06.893Z,0.90
2018-03-26T21:02:35.338Z,0.80
2018-03-26T21:05:02.917Z,0.80
2018-03-26T21:07:31.358Z,0.80
2018-03-26T21:09:59.067Z,1.03
2018-03-26T21:12:26.758Z,1.07
2018-03-26T21:14:54.387Z,1.00
2018-03-26T21:17:22.767Z,1.10
2018-03-26T21:19:51.354Z,0.90
2018-03-26T21:22:18.983Z,0.87
2018-03-26T21:24:46.555Z,0.93
2018-03-26T21:27:14.903Z,0.80
2018-03-26T21:29:42.464Z,1.20
2018-03-26T21:32:10.043Z,0.90
2018-03-26T21:34:38.500Z,1.00
2018-03-26T21:37:06.085Z,0.70
2018-03-26T21:39:34.413Z,1.07
2018-03-26T21:42:02.014Z,1.03
2018-03-26T21:44:29.576Z,1.13
2018-03-26T21:46:58.012Z,0.80
2018-03-26T21:49:25.612Z,0.83
2018-03-26T21:51:53.175Z,0.90
2018-03-26T21:54:21.509Z,1.00
2018-03-26T21:56:49.111Z,0.83
2018-03-26T21:59:17.466Z,1.17
2018-03-26T22:01:45.826Z,0.80
2018-03-26T22:04:13.399Z,0.83
2018-03-26T22:06:41.073Z,0.90
2018-03-26T22:09:09.403Z,1.03
2018-03-26T22:11:36.986Z,0.80
2018-03-26T22:14:04.545Z,0.80
2018-03-26T22:16:32.134Z,0.80
2018-03-26T22:19:00.458Z,0.70
2018-03-26T22:21:28.144Z,1.07
2018-03-26T22:23:55.730Z,1.00
2018-03-26T22:26:24.088Z,0.67
2018-03-26T22:28:52.436Z,0.97
2018-03-26T22:31:20.048Z,0.80
2018-03-26T22:33:48.562Z,0.90
2018-03-26T22:36:16.492Z,0.80
2018-03-26T22:38:44.493Z,0.93
2018-03-26T22:41:12.668Z,1.17
2018-03-26T22:43:40.621Z,0.80
2018-03-26T22:46:08.400Z,0.70
2018-03-26T22:48:36.010Z,0.90
2018-03-26T22:51:04.376Z,0.80
2018-03-26T22:53:32.754Z,0.67
2018-03-26T22:56:00.588Z,0.90
2018-03-26T22:58:28.459Z,1.10
2018-03-26T23:00:56.848Z,0.90
2018-03-26T23:03:25.232Z,0.90
2018-03-26T23:05:53.770Z,1.10
2018-03-26T23:08:21.354Z,0.67
2018-03-26T23:10:48.945Z,0.70
2018-03-26T23:13:17.295Z,0.87
2018-03-26T23:15:44.878Z,0.80
2018-03-26T23:18:13.324Z,0.70
2018-03-26T23:20:40.934Z,0.80
2018-03-26T23:23:08.510Z,0.60
2018-03-26T23:25:36.057Z,0.70
2018-03-26T23:28:03.659Z,0.77
2018-03-26T23:30:31.318Z,0.60
2018-03-26T23:32:58.972Z,1.03
2018-03-26T23:35:27.598Z,0.80
2018-03-26T23:37:55.647Z,0.97
2018-03-26T23:40:24.152Z,0.73
2018-03-26T23:42:52.480Z,1.03
2018-03-26T23:45:20.736Z,0.90
2018-03-26T23:47:48.782Z,0.60
2018-03-26T23:50:17.933Z,0.53
2018-03-26T23:52:46.276Z,0.60
2018-03-26T23:55:15.000Z,0.73
2018-03-26T23:57:43.884Z,0.77
